createdAt,value
2022-11-24T00:01:09.714Z,10.91
2022-11-24T00:03:37.948Z,10.83
2022-11-24T00:06:11.287Z,10.92
2022-11-24T00:08:38.893Z,10.94
2022-11-24T00:11:10.384Z,11.01
2022-11-24T00:13:41.671Z,11.00
2022-11-24T00:16:12.865Z,10.97
2022-11-24T00:18:40.558Z,10.98
2022-11-24T00:21:07.591Z,10.99
2022-11-24T00:23:36.507Z,10.87
2022-11-24T00:26:07.416Z,10.73
2022-11-24T00:28:34.945Z,10.57
2022-11-24T00:31:02.641Z,10.39
2022-11-24T00:33:30.398Z,10.42
2022-11-24T00:35:57.716Z,10.41
2022-11-24T00:38:24.710Z,10.42
2022-11-24T00:40:51.985Z,10.50
2022-11-24T00:43:19.281Z,10.48
2022-11-24T00:45:46.120Z,10.37
2022-11-24T00:48:13.214Z,10.32
2022-11-24T00:50:40.314Z,10.32
2022-11-24T00:53:08.160Z,10.30
2022-11-24T00:55:36.045Z,10.32
2022-11-24T00:58:02.961Z,10.30
2022-11-24T01:00:29.993Z,10.29
2022-11-24T01:02:57.239Z,10.26
2022-11-24T01:05:24.056Z,10.27
2022-11-24T01:07:50.914Z,10.18
2022-11-24T01:10:20.061Z,10.16
2022-11-24T01:12:48.048Z,10.13
2022-11-24T01:15:15.052Z,10.06
2022-11-24T01:17:42.650Z,10.01
2022-11-24T01:20:09.850Z,9.89
2022-11-24T01:22:38.456Z,10.13
2022-11-24T01:25:06.286Z,10.32
2022-11-24T01:27:33.234Z,10.41
2022-11-24T01:30:00.713Z,10.43
2022-11-24T01:32:27.862Z,10.54
2022-11-24T01:34:54.848Z,10.55
2022-11-24T01:37:21.740Z,10.61
2022-11-24T01:39:48.714Z,10.63
2022-11-24T01:42:15.620Z,10.58
2022-11-24T01:44:42.954Z,10.54
2022-11-24T01:47:13.205Z,10.52
2022-11-24T01:49:54.401Z,10.42
2022-11-24T01:52:26.254Z,10.49
2022-11-24T01:54:58.506Z,10.35
2022-11-24T01:57:27.785Z,10.27
2022-11-24T01:59:58.569Z,10.26
2022-11-24T02:05:22.328Z,9.88
2022-11-24T02:07:49.852Z,9.82
2022-11-24T02:10:17.017Z,9.67
2022-11-24T02:12:46.874Z,9.66
2022-11-24T02:15:35.126Z,9.69
2022-11-24T02:18:02.169Z,9.73
2022-11-24T02:20:29.094Z,9.77
2022-11-24T02:23:11.377Z,9.62
2022-11-24T02:25:58.735Z,9.63
2022-11-24T02:28:28.280Z,9.59
2022-11-24T02:30:55.505Z,9.31
2022-11-24T02:33:22.655Z,9.22
2022-11-24T02:35:49.845Z,9.09
2022-11-24T02:38:16.665Z,9.18
2022-11-24T02:40:45.074Z,9.03
2022-11-24T02:43:14.065Z,8.93
2022-11-24T02:45:41.701Z,9.07
2022-11-24T02:48:08.668Z,9.13
2022-11-24T02:50:35.654Z,9.15
2022-11-24T02:53:02.452Z,9.22
2022-11-24T02:55:29.361Z,9.04
2022-11-24T02:57:56.301Z,9.12
2022-11-24T03:00:23.212Z,9.12
2022-11-24T03:02:50.347Z,9.04
2022-11-24T03:05:18.187Z,9.09
2022-11-24T03:07:45.697Z,9.13
2022-11-24T03:10:12.770Z,9.20
2022-11-24T03:12:39.975Z,9.10
2022-11-24T03:15:07.176Z,9.00
2022-11-24T03:17:34.095Z,9.04
2022-11-24T03:23:18.130Z,9.19
2022-11-24T03:25:45.195Z,9.05
2022-11-24T03:28:14.184Z,9.08
2022-11-24T03:30:42.824Z,9.12
2022-11-24T03:33:10.470Z,9.14
2022-11-24T03:35:37.478Z,9.00
2022-11-24T03:38:04.453Z,9.01
2022-11-24T03:40:31.431Z,9.04
2022-11-24T03:42:58.416Z,9.18
2022-11-24T03:48:13.149Z,9.22
2022-11-24T03:50:40.342Z,9.22
2022-11-24T03:53:07.294Z,9.19
2022-11-24T03:55:34.379Z,9.07
2022-11-24T03:58:01.325Z,9.14
2022-11-24T04:00:29.654Z,9.06
2022-11-24T04:02:56.999Z,8.95
2022-11-24T04:05:25.346Z,9.06
2022-11-24T04:07:56.650Z,9.07
2022-11-24T04:10:24.560Z,9.02
2022-11-24T04:12:55.941Z,9.06
2022-11-24T04:15:22.973Z,8.96
2022-11-24T04:17:50.611Z,8.85
2022-11-24T04:20:17.983Z,8.95
2022-11-24T04:22:45.505Z,8.89
2022-11-24T04:25:12.810Z,8.83
2022-11-24T04:27:41.950Z,8.63
2022-11-24T04:30:10.189Z,8.41
2022-11-24T04:32:37.131Z,8.09
2022-11-24T04:35:04.628Z,7.68
2022-11-24T04:37:32.195Z,7.66
2022-11-24T04:39:59.334Z,7.52
2022-11-24T04:42:26.301Z,7.36
2022-11-24T04:44:53.142Z,7.37
2022-11-24T04:47:23.089Z,7.35
2022-11-24T04:49:52.884Z,7.36
2022-11-24T04:52:21.082Z,7.28
2022-11-24T04:54:48.562Z,7.39
2022-11-24T04:57:16.673Z,7.59
2022-11-24T04:59:43.832Z,7.61
2022-11-24T05:02:12.080Z,7.52
2022-11-24T05:04:39.739Z,7.51
2022-11-24T05:07:07.942Z,7.78
2022-11-24T05:09:58.556Z,7.83
2022-11-24T05:12:31.388Z,7.49
2022-11-24T05:14:59.846Z,7.22
2022-11-24T05:17:35.571Z,7.14
2022-11-24T05:20:02.923Z,7.07
2022-11-24T05:22:31.034Z,7.09
2022-11-24T05:24:58.312Z,7.14
2022-11-24T05:27:26.405Z,7.16
2022-11-24T05:29:54.881Z,7.21
2022-11-24T05:35:27.180Z,7.42
2022-11-24T05:37:54.265Z,7.59
2022-11-24T05:40:22.323Z,7.74
2022-11-24T05:42:49.301Z,7.88
2022-11-24T05:45:18.873Z,7.97
2022-11-24T05:47:49.718Z,7.98
2022-11-24T05:50:21.126Z,7.96
2022-11-24T05:52:49.637Z,7.84
2022-11-24T05:55:16.799Z,8.00
2022-11-24T05:57:44.128Z,8.08
2022-11-24T06:00:12.771Z,8.20
2022-11-24T06:02:40.405Z,8.36
2022-11-24T06:05:08.508Z,8.38
2022-11-24T06:07:35.625Z,8.42
2022-11-24T06:10:05.762Z,8.52
2022-11-24T06:12:33.490Z,8.42
2022-11-24T06:15:02.450Z,8.59
2022-11-24T06:17:31.942Z,8.56
2022-11-24T06:19:59.388Z,8.71
2022-11-24T06:22:26.849Z,8.78
2022-11-24T06:24:55.585Z,8.76
2022-11-24T06:27:23.296Z,8.85
2022-11-24T06:29:50.490Z,8.98
2022-11-24T06:32:17.507Z,9.07
2022-11-24T06:34:44.478Z,9.07
2022-11-24T06:37:11.975Z,9.17
2022-11-24T06:39:39.019Z,9.31
2022-11-24T06:42:06.935Z,9.29
2022-11-24T06:44:36.915Z,9.44
2022-11-24T06:47:14.495Z,9.54
2022-11-24T06:49:50.290Z,9.45
2022-11-24T06:52:18.521Z,9.53
2022-11-24T06:54:51.932Z,9.63
2022-11-24T06:57:19.838Z,9.69
2022-11-24T06:59:49.516Z,9.84
2022-11-24T07:02:16.972Z,9.94
2022-11-24T07:04:46.695Z,9.97
2022-11-24T07:07:17.868Z,10.12
2022-11-24T07:09:45.122Z,10.20
2022-11-24T07:12:13.414Z,10.05
2022-11-24T07:14:42.000Z,9.97
2022-11-24T07:17:09.951Z,9.99
2022-11-24T07:19:45.306Z,10.11
2022-11-24T07:22:14.202Z,10.09
2022-11-24T07:24:42.905Z,10.20
2022-11-24T07:27:10.903Z,10.37
2022-11-24T07:29:38.103Z,10.30
2022-11-24T07:32:08.661Z,10.55
2022-11-24T07:34:37.095Z,10.63
2022-11-24T07:37:10.064Z,10.73
2022-11-24T07:39:38.332Z,10.69
2022-11-24T07:42:08.411Z,10.75
2022-11-24T07:44:38.799Z,10.80
2022-11-24T07:47:07.239Z,10.92
2022-11-24T07:49:34.637Z,10.91
2022-11-24T07:52:04.875Z,10.93
2022-11-24T07:54:33.517Z,11.03
2022-11-24T07:57:04.620Z,11.20
2022-11-24T07:59:32.332Z,11.21
2022-11-24T08:02:03.360Z,11.32
2022-11-24T08:04:34.025Z,11.45
2022-11-24T08:07:02.491Z,11.51
2022-11-24T08:09:29.856Z,11.53
2022-11-24T08:12:01.712Z,11.57
2022-11-24T08:14:29.270Z,11.60
2022-11-24T08:16:58.432Z,11.67
2022-11-24T08:19:25.384Z,11.79
2022-11-24T08:21:53.209Z,12.07
2022-11-24T08:24:22.744Z,12.02
2022-11-24T08:26:50.617Z,12.25
2022-11-24T08:29:19.258Z,12.27
2022-11-24T08:31:49.355Z,12.41
2022-11-24T08:34:16.969Z,12.50
2022-11-24T08:36:47.519Z,12.60
2022-11-24T08:39:42.494Z,12.59
2022-11-24T08:42:10.762Z,12.75
2022-11-24T08:44:38.202Z,12.78
2022-11-24T08:47:07.230Z,12.94
2022-11-24T08:49:34.455Z,13.15
2022-11-24T08:52:03.548Z,13.15
2022-11-24T08:54:35.388Z,13.12
2022-11-24T08:57:02.866Z,13.23
2022-11-24T08:59:31.132Z,13.40
2022-11-24T09:01:58.850Z,13.50
2022-11-24T09:04:25.963Z,13.57
2022-11-24T09:06:53.720Z,13.66
2022-11-24T09:09:21.087Z,13.81
2022-11-24T09:11:50.763Z,13.74
2022-11-24T09:14:18.608Z,13.78
2022-11-24T09:16:45.648Z,13.80
2022-11-24T09:19:12.679Z,13.73
2022-11-24T09:21:40.741Z,13.81
2022-11-24T09:24:09.064Z,13.85
2022-11-24T09:26:44.548Z,14.02
2022-11-24T09:29:14.927Z,14.11
2022-11-24T09:31:43.650Z,14.04
2022-11-24T09:34:12.790Z,14.05
2022-11-24T09:36:39.729Z,14.13
2022-11-24T09:39:06.835Z,14.01
2022-11-24T09:41:52.177Z,13.96
2022-11-24T09:44:38.731Z,13.92
2022-11-24T09:47:18.311Z,13.95
2022-11-24T09:49:56.596Z,14.08
2022-11-24T09:52:32.993Z,14.22
2022-11-24T09:55:01.995Z,14.13
2022-11-24T09:57:37.701Z,14.24
2022-11-24T10:00:12.049Z,14.29
2022-11-24T10:02:42.273Z,14.42
2022-11-24T10:05:13.547Z,14.21
2022-11-24T10:08:03.930Z,14.24
2022-11-24T10:10:50.544Z,14.27
2022-11-24T10:13:33.677Z,14.51
2022-11-24T10:16:12.218Z,14.73
2022-11-24T10:18:55.692Z,14.54
2022-11-24T10:21:55.915Z,14.31
2022-11-24T10:24:26.789Z,14.42
2022-11-24T10:27:04.200Z,14.58
2022-11-24T10:29:38.352Z,14.80
2022-11-24T10:35:00.896Z,14.81
2022-11-24T10:37:35.954Z,14.82
2022-11-24T10:40:06.870Z,14.83
2022-11-24T10:42:39.353Z,14.68
2022-11-24T10:45:18.378Z,14.55
2022-11-24T10:48:20.276Z,14.40
2022-11-24T10:50:57.526Z,14.35
2022-11-24T10:53:31.781Z,14.47
2022-11-24T10:56:03.932Z,14.46
2022-11-24T10:59:10.726Z,14.35
2022-11-24T11:01:39.198Z,14.37
2022-11-24T11:04:18.743Z,14.08
2022-11-24T11:06:46.777Z,14.12
2022-11-24T11:09:16.370Z,14.12
2022-11-24T11:11:45.346Z,14.17
2022-11-24T11:14:13.208Z,14.34
2022-11-24T11:16:54.767Z,14.45
2022-11-24T11:19:54.204Z,14.43
2022-11-24T11:22:31.448Z,14.42
2022-11-24T11:25:19.807Z,14.39
2022-11-24T11:27:49.009Z,14.48
2022-11-24T11:36:03.953Z,13.83
2022-11-24T11:38:36.009Z,13.35
2022-11-24T11:41:06.225Z,12.86
2022-11-24T11:43:40.327Z,12.66
2022-11-24T11:46:12.525Z,12.42
2022-11-24T11:48:44.356Z,12.50
2022-11-24T11:51:34.200Z,12.65
2022-11-24T11:54:01.763Z,12.86
2022-11-24T11:56:31.851Z,12.87
2022-11-24T11:59:08.054Z,13.01
2022-11-24T12:01:54.426Z,13.05
2022-11-24T12:04:28.849Z,13.09
2022-11-24T12:07:15.785Z,13.06
2022-11-24T12:09:53.519Z,12.97
2022-11-24T12:12:25.388Z,12.79
2022-11-24T12:15:07.363Z,12.84
2022-11-24T12:17:54.790Z,12.84
2022-11-24T12:20:37.030Z,12.77
2022-11-24T12:23:15.920Z,12.80
2022-11-24T12:25:46.641Z,12.64
2022-11-24T12:28:29.077Z,12.55
2022-11-24T12:30:59.427Z,12.53
2022-11-24T12:33:36.038Z,12.63
2022-11-24T12:36:33.910Z,12.66
2022-11-24T12:39:03.974Z,12.71
2022-11-24T12:41:49.573Z,12.81
2022-11-24T12:44:39.012Z,12.69
2022-11-24T12:47:09.439Z,12.34
2022-11-24T12:49:47.721Z,12.34
2022-11-24T12:52:37.294Z,12.32
2022-11-24T12:55:13.597Z,12.32
2022-11-24T12:58:09.378Z,12.36
2022-11-24T13:00:47.259Z,12.30
2022-11-24T13:03:33.482Z,12.39
2022-11-24T13:06:22.051Z,12.58
2022-11-24T13:08:51.020Z,12.57
2022-11-24T13:11:29.351Z,12.43
2022-11-24T13:14:20.002Z,12.32
2022-11-24T13:17:21.154Z,12.28
2022-11-24T13:19:38.028Z,12.48
2022-11-24T13:22:16.870Z,12.63
2022-11-24T13:24:45.915Z,12.48
2022-11-24T13:27:16.299Z,12.37
2022-11-24T13:29:44.796Z,12.35
2022-11-24T13:32:18.042Z,12.20
2022-11-24T13:34:49.944Z,12.05
2022-11-24T13:37:34.649Z,12.06
2022-11-24T13:40:24.220Z,11.74
2022-11-24T13:43:04.608Z,11.69
2022-11-24T13:45:50.943Z,11.59
2022-11-24T13:48:20.973Z,11.68
2022-11-24T13:50:51.950Z,11.83
2022-11-24T13:53:29.222Z,11.80
2022-11-24T13:55:58.538Z,11.96
2022-11-24T13:59:09.428Z,12.02
2022-11-24T14:01:41.127Z,11.94
2022-11-24T14:04:33.062Z,11.85
2022-11-24T14:07:07.877Z,11.77
2022-11-24T14:10:04.387Z,11.66
2022-11-24T14:12:34.647Z,11.38
2022-11-24T14:15:23.773Z,11.33
2022-11-24T14:17:55.032Z,11.42
2022-11-24T14:20:28.308Z,11.40
2022-11-24T14:22:56.238Z,11.41
2022-11-24T14:25:28.056Z,11.40
2022-11-24T14:27:56.787Z,11.35
2022-11-24T14:30:24.974Z,11.40
2022-11-24T14:32:59.971Z,11.31
2022-11-24T14:35:37.535Z,11.29
2022-11-24T14:38:08.700Z,11.13
2022-11-24T14:40:55.759Z,11.19
2022-11-24T14:46:16.250Z,11.23
2022-11-24T14:52:00.520Z,11.71
2022-11-24T14:54:28.272Z,11.63
2022-11-24T14:57:01.783Z,11.75
2022-11-24T14:59:30.839Z,11.69
2022-11-24T15:02:03.299Z,11.75
2022-11-24T15:05:01.756Z,11.74
2022-11-24T15:07:27.336Z,11.72
2022-11-24T15:09:58.243Z,11.61
2022-11-24T15:12:45.844Z,11.48
2022-11-24T15:15:15.949Z,11.35
2022-11-24T15:17:47.559Z,11.59
2022-11-24T15:20:23.560Z,11.55
2022-11-24T15:22:52.903Z,11.21
2022-11-24T15:25:45.149Z,11.27
2022-11-24T15:28:15.067Z,11.16
2022-11-24T15:30:43.917Z,11.20
2022-11-24T15:33:17.047Z,11.20
2022-11-24T15:35:47.858Z,11.01
2022-11-24T15:38:16.189Z,10.76
2022-11-24T15:40:45.142Z,10.83
2022-11-24T15:43:29.653Z,10.81
2022-11-24T15:46:00.020Z,10.88
2022-11-24T15:48:27.462Z,10.72
2022-11-24T15:50:54.929Z,10.77
2022-11-24T15:53:34.398Z,10.91
2022-11-24T15:56:02.943Z,11.16
2022-11-24T15:58:30.646Z,11.09
2022-11-24T16:01:07.464Z,10.92
2022-11-24T16:03:49.918Z,11.03
2022-11-24T16:06:24.049Z,11.18
2022-11-24T16:08:54.402Z,10.93
2022-11-24T16:11:22.012Z,10.85
2022-11-24T16:13:52.876Z,10.90
2022-11-24T16:16:23.088Z,10.53
2022-11-24T16:18:51.191Z,10.47
2022-11-24T16:21:18.783Z,10.16
2022-11-24T16:23:46.654Z,9.96
2022-11-24T16:26:15.117Z,9.78
2022-11-24T16:28:45.316Z,9.69
2022-11-24T16:31:16.433Z,9.65
2022-11-24T16:33:44.945Z,9.61
2022-11-24T16:36:13.265Z,9.65
2022-11-24T16:38:41.316Z,9.37
2022-11-24T16:41:09.859Z,9.43
2022-11-24T16:43:59.129Z,9.36
2022-11-24T16:46:38.705Z,9.60
2022-11-24T16:49:09.370Z,9.71
2022-11-24T16:51:37.981Z,9.68
2022-11-24T16:54:06.224Z,9.75
2022-11-24T16:56:34.661Z,9.76
2022-11-24T16:59:18.828Z,9.69
2022-11-24T17:06:27.083Z,9.70
2022-11-24T17:08:56.826Z,9.70
2022-11-24T17:11:26.809Z,9.67
2022-11-24T17:14:00.824Z,9.72
2022-11-24T17:16:28.527Z,9.70
2022-11-24T17:18:57.191Z,9.67
2022-11-24T17:21:25.977Z,9.59
2022-11-24T17:23:54.241Z,9.65
2022-11-24T17:26:44.685Z,9.55
2022-11-24T17:37:27.606Z,9.56
2022-11-24T17:40:26.317Z,9.62
2022-11-24T17:45:29.382Z,9.71
2022-11-24T17:48:11.703Z,9.87
2022-11-24T17:51:26.880Z,9.99
2022-11-24T17:53:56.813Z,9.66
2022-11-24T17:56:27.555Z,9.32
2022-11-24T17:58:59.672Z,9.19
2022-11-24T18:01:35.828Z,9.12
2022-11-24T18:04:11.007Z,9.27
2022-11-24T18:06:48.447Z,9.32
2022-11-24T18:09:16.741Z,9.32
2022-11-24T18:11:46.131Z,9.23
2022-11-24T18:18:19.347Z,9.22
2022-11-24T18:21:06.981Z,9.37
2022-11-24T18:23:37.504Z,9.31
2022-11-24T18:26:06.245Z,9.24
2022-11-24T18:28:36.242Z,9.20
2022-11-24T18:31:09.901Z,9.28
2022-11-24T18:33:39.411Z,8.96
2022-11-24T18:36:08.351Z,9.17
2022-11-24T18:39:07.272Z,9.18
2022-11-24T18:41:40.597Z,9.05
2022-11-24T18:44:21.470Z,9.20
2022-11-24T18:46:54.372Z,9.16
2022-11-24T18:56:20.207Z,9.38
2022-11-24T18:58:54.846Z,9.61
2022-11-24T19:04:15.361Z,9.71
2022-11-24T19:06:45.499Z,9.81
2022-11-24T19:09:19.435Z,9.69
2022-11-24T19:11:51.858Z,9.63
2022-11-24T19:14:21.829Z,9.80
2022-11-24T19:17:36.484Z,9.74
2022-11-24T19:19:48.037Z,9.64
2022-11-24T19:22:16.448Z,9.40
2022-11-24T19:24:48.016Z,9.44
2022-11-24T19:27:24.359Z,9.51
2022-11-24T19:29:55.649Z,9.55
2022-11-24T19:32:26.552Z,9.38
2022-11-24T19:34:54.753Z,9.76
2022-11-24T19:37:28.774Z,9.74
2022-11-24T19:40:20.239Z,9.58
2022-11-24T19:42:48.434Z,9.56
2022-11-24T19:45:19.897Z,9.52
2022-11-24T19:47:52.354Z,9.28
2022-11-24T19:50:21.910Z,9.42
2022-11-24T19:52:49.382Z,9.31
2022-11-24T19:58:42.814Z,9.27
2022-11-24T20:01:20.592Z,9.11
2022-11-24T20:07:19.321Z,8.28
2022-11-24T20:09:47.261Z,9.01
2022-11-24T20:12:15.298Z,8.89
2022-11-24T20:14:44.987Z,8.96
2022-11-24T20:17:14.280Z,8.96
2022-11-24T20:19:41.409Z,8.89
2022-11-24T20:22:08.655Z,8.81
2022-11-24T20:24:37.913Z,8.79
2022-11-24T20:27:04.890Z,8.84
2022-11-24T20:29:34.724Z,8.77
2022-11-24T20:32:01.750Z,8.73
2022-11-24T20:39:38.912Z,8.77
2022-11-24T20:42:06.430Z,8.69
2022-11-24T20:44:33.565Z,8.70
2022-11-24T20:47:05.078Z,8.65
2022-11-24T20:49:41.347Z,8.68
2022-11-24T20:52:16.087Z,8.59
2022-11-24T20:54:47.085Z,8.62
2022-11-24T20:57:27.826Z,8.58
2022-11-24T21:00:07.805Z,8.76
2022-11-24T21:02:35.948Z,8.69
2022-11-24T21:05:19.312Z,8.66
2022-11-24T21:08:04.749Z,8.65
2022-11-24T21:10:35.803Z,8.74
2022-11-24T21:13:05.687Z,8.69
2022-11-24T21:18:52.868Z,8.77
2022-11-24T21:25:15.482Z,8.84
2022-11-24T21:27:44.149Z,8.80
2022-11-24T21:30:12.172Z,8.93
2022-11-24T21:33:07.186Z,8.97
2022-11-24T21:35:45.582Z,8.85
2022-11-24T21:38:19.270Z,8.91
2022-11-24T21:40:59.084Z,8.95
2022-11-24T21:43:38.994Z,8.88
2022-11-24T21:46:10.917Z,8.96
2022-11-24T21:48:44.735Z,8.90
2022-11-24T21:51:29.577Z,9.04
2022-11-24T22:02:18.967Z,9.03
2022-11-24T22:09:18.718Z,9.08
2022-11-24T22:12:21.344Z,9.14
2022-11-24T22:15:09.322Z,9.15
2022-11-24T22:17:36.713Z,9.09
2022-11-24T22:20:03.884Z,9.26
2022-11-24T22:22:30.835Z,9.25
2022-11-24T22:24:58.568Z,9.23
2022-11-24T22:27:26.109Z,9.13
2022-11-24T22:29:54.346Z,9.06
2022-11-24T22:32:23.025Z,9.09
2022-11-24T22:34:51.574Z,9.11
2022-11-24T22:37:21.519Z,9.08
2022-11-24T22:39:48.813Z,9.15
2022-11-24T22:42:17.289Z,9.07
2022-11-24T22:44:47.370Z,9.11
2022-11-24T22:47:19.356Z,9.07
2022-11-24T22:49:46.572Z,9.22
2022-11-24T22:52:14.153Z,9.14
2022-11-24T22:54:44.483Z,9.04
2022-11-24T22:57:13.211Z,9.03
2022-11-24T22:59:42.353Z,9.13
2022-11-24T23:02:10.082Z,9.07
2022-11-24T23:04:37.490Z,9.03
2022-11-24T23:07:04.579Z,9.11
2022-11-24T23:09:31.453Z,9.08
2022-11-24T23:11:58.573Z,9.03
2022-11-24T23:14:29.113Z,9.06
2022-11-24T23:16:56.409Z,8.99
2022-11-24T23:19:25.689Z,8.97
2022-11-24T23:21:52.593Z,8.89
2022-11-24T23:24:19.542Z,8.98
2022-11-24T23:26:49.104Z,8.90
2022-11-24T23:29:21.663Z,8.98
2022-11-24T23:31:54.678Z,8.96
2022-11-24T23:34:22.679Z,8.90
2022-11-24T23:36:54.075Z,8.95
2022-11-24T23:39:22.071Z,8.96
2022-11-24T23:41:51.805Z,9.05
2022-11-24T23:44:26.473Z,9.05
2022-11-24T23:47:21.672Z,8.99
